createdAt,value
2022-10-31T00:01:57.152Z,27.13
2022-10-31T00:04:26.213Z,27.37
2022-10-31T00:38:13.511Z,24.42
2022-10-31T00:40:40.034Z,24.87
2022-10-31T00:43:06.609Z,23.87
2022-10-31T00:45:33.236Z,23.35
2022-10-31T00:48:00.041Z,21.58
2022-10-31T00:50:46.132Z,20.17
2022-10-31T00:53:12.735Z,22.45
2022-10-31T00:55:39.269Z,22.27
2022-10-31T00:58:05.983Z,21.80
2022-10-31T01:00:32.689Z,21.73
2022-10-31T01:03:01.179Z,21.23
2022-10-31T01:05:27.979Z,20.25
2022-10-31T01:07:54.569Z,19.48
2022-10-31T01:10:21.119Z,18.95
2022-10-31T01:12:49.405Z,16.73
2022-10-31T01:15:20.996Z,17.23
2022-10-31T01:17:48.351Z,17.35
2022-10-31T01:20:16.205Z,17.23
2022-10-31T01:22:42.892Z,17.23
2022-10-31T01:25:10.454Z,16.83
2022-10-31T01:27:37.030Z,16.33
2022-10-31T01:30:04.557Z,15.85
2022-10-31T01:32:31.130Z,15.80
2022-10-31T01:34:57.714Z,14.25
2022-10-31T01:37:24.322Z,14.55
2022-10-31T01:39:50.853Z,14.18
2022-10-31T01:42:20.829Z,15.00
2022-10-31T01:44:57.877Z,16.33
2022-10-31T01:47:46.760Z,14.77
2022-10-31T01:50:37.122Z,15.05
2022-10-31T01:53:08.696Z,13.07
2022-10-31T01:55:39.600Z,14.87
2022-10-31T01:58:10.546Z,15.48
2022-10-31T02:00:37.789Z,14.45
2022-10-31T02:03:04.647Z,15.43
2022-10-31T02:05:33.673Z,15.93
2022-10-31T02:08:16.955Z,16.92
2022-10-31T02:10:44.727Z,17.25
2022-10-31T02:13:13.928Z,17.50
2022-10-31T02:15:41.678Z,18.98
2022-10-31T02:18:09.191Z,18.67
2022-10-31T02:21:08.045Z,19.85
2022-10-31T02:23:58.847Z,18.90
2022-10-31T02:26:46.651Z,19.30
2022-10-31T02:29:38.969Z,17.35
2022-10-31T02:32:42.787Z,19.73
2022-10-31T02:35:27.698Z,19.73
2022-10-31T02:38:19.160Z,18.62
2022-10-31T02:40:45.684Z,18.33
2022-10-31T02:43:21.449Z,20.30
2022-10-31T02:46:04.817Z,20.37
2022-10-31T02:48:36.208Z,20.20
2022-10-31T02:51:05.274Z,20.00
2022-10-31T02:53:35.941Z,20.30
2022-10-31T02:56:16.431Z,19.42
2022-10-31T02:58:58.542Z,19.58
2022-10-31T03:01:34.446Z,19.33
2022-10-31T03:04:13.424Z,19.27
2022-10-31T03:07:01.399Z,20.33
2022-10-31T03:09:45.680Z,19.08
2022-10-31T03:12:20.550Z,16.95
2022-10-31T03:15:06.698Z,17.60
2022-10-31T03:17:38.447Z,17.62
2022-10-31T03:20:09.970Z,18.67
2022-10-31T03:22:38.778Z,18.65
2022-10-31T03:25:06.130Z,18.33
2022-10-31T03:27:36.756Z,18.33
2022-10-31T03:30:08.923Z,17.80
2022-10-31T03:32:55.166Z,18.90
2022-10-31T03:35:25.339Z,17.62
2022-10-31T03:37:53.906Z,19.00
2022-10-31T03:40:22.881Z,18.00
2022-10-31T03:43:04.683Z,18.62
2022-10-31T03:45:32.098Z,17.62
2022-10-31T03:48:02.631Z,18.40
2022-10-31T03:50:39.426Z,18.20
2022-10-31T03:53:23.825Z,18.17
2022-10-31T03:56:01.602Z,17.87
2022-10-31T03:58:44.447Z,17.27
2022-10-31T04:01:15.506Z,17.98
2022-10-31T04:03:43.602Z,16.35
2022-10-31T04:06:14.716Z,16.77
2022-10-31T04:08:55.699Z,15.00
2022-10-31T04:11:26.909Z,15.05
2022-10-31T04:13:55.400Z,14.35
2022-10-31T04:16:24.256Z,13.82
2022-10-31T04:18:50.920Z,14.90
2022-10-31T04:21:17.835Z,15.63
2022-10-31T04:23:44.463Z,15.48
2022-10-31T04:26:13.974Z,16.48
2022-10-31T04:28:40.575Z,15.82
2022-10-31T04:31:07.143Z,15.63
2022-10-31T04:33:33.695Z,15.57
2022-10-31T04:36:00.227Z,16.33
2022-10-31T04:38:26.829Z,15.15
2022-10-31T04:40:53.471Z,16.00
2022-10-31T04:45:54.563Z,14.45
2022-10-31T04:48:21.138Z,14.00
2022-10-31T04:50:47.908Z,13.73
2022-10-31T04:53:14.481Z,15.05
2022-10-31T04:55:41.023Z,13.95
2022-10-31T04:58:07.647Z,14.15
2022-10-31T05:00:34.399Z,14.85
2022-10-31T05:03:01.248Z,13.57
2022-10-31T05:05:30.526Z,13.25
2022-10-31T05:07:57.301Z,13.35
2022-10-31T05:10:26.987Z,13.55
2022-10-31T05:12:56.058Z,12.90
2022-10-31T05:15:24.227Z,12.98
2022-10-31T05:17:51.662Z,13.98
2022-10-31T05:20:20.555Z,13.15
2022-10-31T05:22:50.248Z,13.10
2022-10-31T05:25:18.171Z,13.65
2022-10-31T05:27:47.341Z,13.38
2022-10-31T05:30:16.758Z,13.27
2022-10-31T05:32:45.665Z,13.65
2022-10-31T05:35:17.543Z,14.38
2022-10-31T05:37:44.403Z,14.35
2022-10-31T05:40:13.560Z,13.02
2022-10-31T05:42:41.384Z,13.93
2022-10-31T05:45:13.680Z,14.45
2022-10-31T05:47:40.318Z,14.70
2022-10-31T05:50:08.293Z,15.82
2022-10-31T05:52:35.147Z,14.35
2022-10-31T05:55:01.806Z,14.43
2022-10-31T05:57:30.441Z,15.38
2022-10-31T05:59:56.972Z,13.43
2022-10-31T06:02:23.562Z,14.60
2022-10-31T06:04:50.220Z,14.52
2022-10-31T06:07:16.853Z,14.75
2022-10-31T06:09:43.445Z,16.50
2022-10-31T06:12:09.970Z,15.25
2022-10-31T06:14:36.499Z,14.57
2022-10-31T06:17:03.047Z,16.50
2022-10-31T06:19:29.595Z,14.77
2022-10-31T06:21:57.231Z,14.68
2022-10-31T06:24:23.790Z,15.00
2022-10-31T06:26:50.329Z,13.88
2022-10-31T06:37:53.492Z,15.15
2022-10-31T12:41:24.898Z,10.77
2022-10-31T12:44:01.248Z,11.02
2022-10-31T12:49:18.022Z,12.37
2022-10-31T12:52:10.429Z,11.65
2022-10-31T12:57:39.090Z,11.02
2022-10-31T13:05:26.041Z,11.27
2022-10-31T13:10:53.446Z,11.93
2022-10-31T13:13:34.009Z,13.07
2022-10-31T13:16:06.174Z,11.95
2022-10-31T13:18:48.871Z,11.52
2022-10-31T13:21:26.387Z,11.57
2022-10-31T13:23:53.379Z,12.40
2022-10-31T13:26:35.595Z,11.45
2022-10-31T13:29:06.283Z,12.77
2022-10-31T13:31:33.896Z,12.60
2022-10-31T13:34:10.030Z,13.27
2022-10-31T13:36:47.053Z,13.27
2022-10-31T13:39:38.486Z,12.60
2022-10-31T13:42:12.034Z,14.07
2022-10-31T13:44:39.357Z,13.35
2022-10-31T13:47:50.284Z,12.37
2022-10-31T13:50:24.561Z,14.18
2022-10-31T13:53:13.186Z,13.15
2022-10-31T13:55:46.850Z,12.65
2022-10-31T13:58:28.011Z,11.77
2022-10-31T14:01:05.052Z,18.30
2022-10-31T14:04:02.062Z,18.85
2022-10-31T14:06:20.742Z,15.55
2022-10-31T14:08:52.947Z,12.48
2022-10-31T14:11:33.023Z,12.23
2022-10-31T14:16:33.373Z,12.60
2022-10-31T14:19:07.218Z,13.80
2022-10-31T14:21:43.277Z,13.38
2022-10-31T14:26:55.630Z,13.55
2022-10-31T14:29:31.427Z,14.68
2022-10-31T14:32:27.885Z,15.48
2022-10-31T14:34:59.017Z,12.23
2022-10-31T14:37:36.535Z,12.13
2022-10-31T14:40:43.350Z,12.18
2022-10-31T14:43:39.617Z,12.73
2022-10-31T14:46:31.453Z,12.50
2022-10-31T14:49:27.225Z,13.68
2022-10-31T14:51:53.986Z,12.85
2022-10-31T14:54:29.247Z,12.27
2022-10-31T14:57:01.221Z,12.55
2022-10-31T14:59:33.965Z,12.90
2022-10-31T15:02:25.470Z,12.73
2022-10-31T15:04:53.501Z,11.10
2022-10-31T15:07:26.765Z,11.90
2022-10-31T15:10:01.579Z,11.77
2022-10-31T15:12:30.822Z,12.55
2022-10-31T15:14:59.370Z,14.25
2022-10-31T15:17:27.054Z,12.90
2022-10-31T15:19:54.323Z,16.05
2022-10-31T15:22:24.411Z,14.07
2022-10-31T15:24:57.364Z,14.00
2022-10-31T15:27:25.762Z,12.85
2022-10-31T15:29:56.872Z,13.35
2022-10-31T15:32:27.002Z,13.43
2022-10-31T15:34:55.253Z,12.90
2022-10-31T15:37:25.317Z,13.30
2022-10-31T15:39:52.472Z,12.05
2022-10-31T15:42:30.202Z,14.25
2022-10-31T15:45:06.982Z,13.90
2022-10-31T15:47:34.491Z,12.18
2022-10-31T15:50:02.572Z,13.55
2022-10-31T15:52:47.043Z,13.43
2022-10-31T15:55:30.418Z,13.65
2022-10-31T15:58:01.498Z,14.18
2022-10-31T16:00:29.848Z,12.18
2022-10-31T16:03:14.731Z,13.07
2022-10-31T16:05:53.212Z,13.62
2022-10-31T16:08:31.946Z,12.60
2022-10-31T16:10:58.465Z,13.40
2022-10-31T16:13:29.541Z,13.13
2022-10-31T16:16:28.921Z,14.00
2022-10-31T16:18:50.730Z,14.93
2022-10-31T16:21:30.894Z,15.10
2022-10-31T16:24:06.166Z,13.93
2022-10-31T16:26:33.855Z,14.15
2022-10-31T16:29:05.561Z,15.20
2022-10-31T16:31:41.240Z,14.68
2022-10-31T16:34:22.348Z,15.23
2022-10-31T16:36:52.199Z,15.07
2022-10-31T16:39:20.223Z,16.50
2022-10-31T16:41:54.342Z,17.17
2022-10-31T16:44:27.989Z,16.45
2022-10-31T16:47:17.296Z,15.68
2022-10-31T16:49:47.142Z,16.10
2022-10-31T16:52:13.889Z,16.33
2022-10-31T16:54:41.423Z,17.50
2022-10-31T16:57:28.793Z,17.37
2022-10-31T16:59:58.846Z,17.25
2022-10-31T17:02:30.922Z,16.10
2022-10-31T17:07:35.303Z,16.17
2022-10-31T17:10:01.887Z,16.55
2022-10-31T17:12:28.801Z,16.12
2022-10-31T17:14:55.463Z,18.85
2022-10-31T17:17:22.071Z,16.65
2022-10-31T17:19:48.817Z,15.07
2022-10-31T17:22:15.686Z,15.93
2022-10-31T17:24:42.391Z,15.88
2022-10-31T17:27:09.088Z,17.02
2022-10-31T17:29:36.219Z,15.75
2022-10-31T17:32:04.254Z,16.92
2022-10-31T17:37:07.673Z,16.25
2022-10-31T17:39:38.752Z,16.50
2022-10-31T17:42:05.452Z,17.27
2022-10-31T17:44:38.910Z,16.67
2022-10-31T17:47:06.293Z,14.77
2022-10-31T17:49:32.851Z,16.95
2022-10-31T17:51:59.456Z,17.05
2022-10-31T17:57:16.078Z,16.40
2022-10-31T17:59:43.328Z,18.77
2022-10-31T18:02:11.502Z,18.55
2022-10-31T18:04:40.548Z,18.35
2022-10-31T18:07:07.956Z,17.50
2022-10-31T18:09:34.622Z,18.15
2022-10-31T18:12:01.303Z,18.85
2022-10-31T18:14:29.450Z,17.25
2022-10-31T18:16:55.983Z,22.90
2022-10-31T18:19:22.612Z,20.35
2022-10-31T18:21:49.291Z,18.15
2022-10-31T18:24:15.848Z,19.40
2022-10-31T18:26:42.407Z,19.12
2022-10-31T18:29:11.394Z,19.00
2022-10-31T18:31:38.124Z,20.58
2022-10-31T18:36:39.971Z,19.60
2022-10-31T18:39:07.024Z,19.95
2022-10-31T18:41:33.954Z,19.98
2022-10-31T18:44:00.504Z,19.33
2022-10-31T18:49:09.395Z,16.90
2022-10-31T18:51:35.954Z,14.93
2022-10-31T18:54:02.776Z,17.40
2022-10-31T18:56:31.767Z,16.92
2022-10-31T18:59:04.432Z,18.42
2022-10-31T19:01:31.578Z,17.20
2022-10-31T19:03:59.962Z,19.87
2022-10-31T19:06:50.546Z,18.60
2022-10-31T19:09:17.193Z,17.45
2022-10-31T19:11:43.922Z,15.88
2022-10-31T19:14:13.314Z,16.55
2022-10-31T19:16:39.930Z,14.75
2022-10-31T19:19:09.766Z,14.07
2022-10-31T19:21:56.763Z,13.85
2022-10-31T19:24:23.415Z,13.52
2022-10-31T19:26:49.962Z,13.82
2022-10-31T19:29:16.604Z,12.98
2022-10-31T19:31:43.111Z,13.80
2022-10-31T19:34:11.940Z,13.62
2022-10-31T19:36:38.465Z,12.48
2022-10-31T19:39:05.108Z,13.07
2022-10-31T19:41:31.692Z,15.30
2022-10-31T19:44:01.438Z,12.98
2022-10-31T19:46:53.663Z,13.60
2022-10-31T19:49:20.472Z,14.13
2022-10-31T19:51:47.121Z,12.55
2022-10-31T19:54:14.011Z,13.30
2022-10-31T19:56:40.642Z,12.37
2022-10-31T19:59:08.092Z,12.88
2022-10-31T20:01:35.020Z,12.18
2022-10-31T20:04:01.819Z,12.93
2022-10-31T20:06:34.043Z,14.30
2022-10-31T20:09:08.151Z,14.87
2022-10-31T20:11:36.808Z,13.73
2022-10-31T20:14:04.382Z,15.75
2022-10-31T20:16:31.125Z,16.08
2022-10-31T20:18:59.634Z,15.40
2022-10-31T20:21:29.429Z,15.65
2022-10-31T20:24:01.135Z,14.95
2022-10-31T20:26:29.391Z,15.25
2022-10-31T20:28:57.279Z,16.65
2022-10-31T20:31:27.465Z,15.57
2022-10-31T20:33:55.758Z,17.50
2022-10-31T20:36:23.169Z,15.98
2022-10-31T20:38:51.273Z,16.25
2022-10-31T20:41:18.414Z,16.75
2022-10-31T20:43:45.278Z,16.90
2022-10-31T20:46:13.272Z,17.65
2022-10-31T20:48:40.553Z,17.77
2022-10-31T20:51:11.553Z,17.62
2022-10-31T20:53:38.430Z,17.73
2022-10-31T20:56:10.405Z,18.15
2022-10-31T20:58:38.372Z,16.50
2022-10-31T21:01:10.639Z,17.83
2022-10-31T21:03:37.303Z,17.70
2022-10-31T21:06:04.767Z,16.87
2022-10-31T21:08:33.038Z,17.95
2022-10-31T21:11:00.386Z,17.17
2022-10-31T21:13:31.863Z,17.85
2022-10-31T21:18:30.167Z,20.90
2022-10-31T21:20:56.909Z,18.30
2022-10-31T21:23:23.910Z,21.02
2022-10-31T21:25:50.564Z,18.83
2022-10-31T21:28:18.932Z,18.45
2022-10-31T21:30:51.610Z,18.15
2022-10-31T21:33:21.304Z,19.50
2022-10-31T21:35:51.692Z,18.83
2022-10-31T21:38:18.738Z,18.77
2022-10-31T21:40:45.391Z,19.67
2022-10-31T21:43:14.307Z,19.00
2022-10-31T21:45:40.919Z,18.37
2022-10-31T21:48:07.455Z,18.58
2022-10-31T21:50:34.846Z,19.17
2022-10-31T21:53:22.784Z,19.10
2022-10-31T21:55:49.307Z,18.12
2022-10-31T21:58:15.892Z,15.98
2022-10-31T22:00:42.513Z,18.77
2022-10-31T22:03:09.146Z,18.52
2022-10-31T22:05:37.100Z,17.87
2022-10-31T22:08:06.582Z,14.90
2022-10-31T22:10:36.507Z,15.10
2022-10-31T22:13:04.160Z,14.32
2022-10-31T22:15:31.536Z,15.30
2022-10-31T22:17:58.073Z,14.05
2022-10-31T22:20:26.201Z,13.98
2022-10-31T22:22:55.031Z,15.18
2022-10-31T22:25:21.578Z,14.65
2022-10-31T22:27:48.097Z,13.93
2022-10-31T22:30:14.753Z,14.90
2022-10-31T22:32:41.307Z,13.88
2022-10-31T22:35:08.196Z,12.85
2022-10-31T22:37:36.068Z,14.20
2022-10-31T22:40:03.524Z,13.77
2022-10-31T22:42:35.463Z,13.70
2022-10-31T22:45:03.810Z,14.48
2022-10-31T22:47:30.385Z,13.95
2022-10-31T22:49:56.945Z,13.30
2022-10-31T22:52:23.579Z,13.02
2022-10-31T22:54:50.167Z,11.07
2022-10-31T22:57:16.747Z,12.82
2022-10-31T22:59:43.306Z,12.20
2022-10-31T23:02:12.523Z,12.10
2022-10-31T23:04:39.365Z,10.65
2022-10-31T23:07:05.930Z,11.35
2022-10-31T23:09:32.772Z,11.32
2022-10-31T23:12:21.983Z,11.18
2022-10-31T23:14:48.536Z,10.88
2022-10-31T23:17:17.745Z,11.75
2022-10-31T23:19:45.773Z,12.00
2022-10-31T23:22:12.614Z,12.68
2022-10-31T23:24:41.629Z,10.90
2022-10-31T23:27:21.924Z,11.93
2022-10-31T23:29:56.935Z,12.55
2022-10-31T23:32:32.766Z,11.57
2022-10-31T23:35:01.902Z,12.00
2022-10-31T23:37:30.886Z,11.52
2022-10-31T23:39:57.983Z,12.15
2022-10-31T23:42:25.549Z,11.95
2022-10-31T23:44:52.205Z,11.60
2022-10-31T23:47:19.709Z,12.55
2022-10-31T23:49:49.222Z,10.82
2022-10-31T23:52:16.358Z,11.27
2022-10-31T23:54:43.208Z,11.02
2022-10-31T23:57:14.569Z,10.20
2022-10-31T23:59:53.298Z,10.55
